Time;durP1;ratioP1;P1;durP2;ratioP2;P2;SDS_P1;SDS_P2;PMS_P1;PMS_P2;Temp;Humidity;BMP_temperature;BMP_pressure;BME280_temperature;BME280_humidity;BME280_pressure;Samples;Min_cycle;Max_cycle;Signal;HPM_P1;HPM_P2
2021/01/01 00:01:39;;;;;;;29.40;13.43;;;5.30;99.90;;;;;;5007677;28;20058;-69
2021/01/01 00:04:06;;;;;;;30.67;14.45;;;5.40;99.90;;;;;;5010935;28;20425;-69
2021/01/01 00:06:37;;;;;;;26.30;14.40;;;5.40;99.90;;;;;;5013647;28;20034;-68
2021/01/01 00:09:05;;;;;;;32.33;14.98;;;5.50;99.90;;;;;;5016295;28;20108;-69
2021/01/01 00:11:33;;;;;;;26.23;13.23;;;5.40;99.90;;;;;;5012747;28;20054;-69
2021/01/01 00:14:00;;;;;;;25.00;13.27;;;5.30;99.90;;;;;;5012847;28;20385;-70
2021/01/01 00:16:26;;;;;;;24.20;12.43;;;5.30;99.90;;;;;;5012723;28;20051;-69
2021/01/01 00:18:53;;;;;;;24.73;13.27;;;5.60;99.90;;;;;;4999394;28;20053;-69
2021/01/01 00:21:19;;;;;;;30.60;12.93;;;5.30;99.90;;;;;;4996955;28;20181;-70
2021/01/01 00:23:45;;;;;;;28.52;13.43;;;5.40;99.90;;;;;;5015532;28;20050;-71
2021/01/01 00:26:13;;;;;;;21.65;11.90;;;5.50;99.90;;;;;;4994882;28;20057;-70
2021/01/01 00:28:44;;;;;;;27.63;13.13;;;5.40;99.90;;;;;;4996063;28;20104;-70
2021/01/01 00:31:32;;;;;;;18.75;10.05;;;5.40;99.90;;;;;;5013259;28;20060;-69
2021/01/01 00:33:59;;;;;;;18.75;9.82;;;5.40;99.90;;;;;;5011600;28;20046;-71
2021/01/01 00:36:25;;;;;;;17.02;9.63;;;5.40;99.90;;;;;;5013530;28;20448;-70
2021/01/01 00:38:53;;;;;;;19.33;9.13;;;5.30;99.90;;;;;;5012442;28;20526;-70
2021/01/01 00:41:27;;;;;;;22.00;9.77;;;5.30;99.90;;;;;;5012696;28;20050;-70
2021/01/01 00:43:54;;;;;;;17.02;10.43;;;5.30;99.90;;;;;;5011172;28;20100;-69
2021/01/01 00:46:24;;;;;;;17.90;9.75;;;5.40;99.90;;;;;;5008255;28;20417;-69
2021/01/01 00:48:51;;;;;;;17.45;9.18;;;5.20;99.90;;;;;;5014453;28;20038;-69
2021/01/01 00:51:31;;;;;;;20.27;10.05;;;5.20;99.90;;;;;;4995432;28;20104;-69
2021/01/01 00:53:58;;;;;;;;;;;5.10;99.90;;;;;;5007436;28;20386;-69
2021/01/01 00:56:25;;;;;;;17.70;8.98;;;5.00;99.90;;;;;;5014944;28;20342;-69
2021/01/01 00:58:53;;;;;;;18.70;9.40;;;5.00;99.90;;;;;;4995479;28;20062;-68
2021/01/01 01:01:24;;;;;;;17.17;9.50;;;5.00;99.90;;;;;;5005620;28;20057;-70
2021/01/01 01:03:55;;;;;;;19.65;10.18;;;4.90;99.90;;;;;;5010684;28;20104;-69
2021/01/01 01:06:23;;;;;;;19.65;9.45;;;4.90;99.90;;;;;;4996180;28;20076;-69
2021/01/01 01:08:49;;;;;;;21.05;10.73;;;4.90;99.90;;;;;;5012995;28;20504;-68
2021/01/01 01:11:25;;;;;;;18.40;9.30;;;5.00;99.90;;;;;;5014089;28;20470;-69
2021/01/01 01:13:53;;;;;;;19.73;9.50;;;5.10;99.90;;;;;;4995094;28;20053;-69
2021/01/01 01:16:27;;;;;;;20.15;9.80;;;5.10;99.90;;;;;;5011193;28;20050;-69
2021/01/01 01:18:54;;;;;;;17.65;9.20;;;5.20;99.90;;;;;;5009482;28;20109;-69
2021/01/01 01:21:22;;;;;;;13.27;7.80;;;5.20;99.90;;;;;;5007279;28;20097;-70
2021/01/01 01:23:50;;;;;;;17.13;8.40;;;5.10;99.90;;;;;;5010514;28;20060;-70
2021/01/01 01:26:16;;;;;;;14.38;7.18;;;5.20;99.90;;;;;;5012903;28;20050;-70
2021/01/01 01:28:42;;;;;;;13.50;7.40;;;5.20;99.90;;;;;;5012133;28;20057;-70
2021/01/01 01:31:09;;;;;;;12.57;6.75;;;5.20;99.90;;;;;;5010082;28;20485;-71
2021/01/01 01:33:35;;;;;;;15.13;8.23;;;5.20;99.90;;;;;;5012762;28;20073;-70
2021/01/01 01:36:02;;;;;;;15.98;8.48;;;5.20;99.90;;;;;;5012499;28;20123;-69
2021/01/01 01:38:28;;;;;;;15.30;7.32;;;5.30;99.90;;;;;;5012890;28;20057;-70
2021/01/01 01:40:55;;;;;;;13.73;7.80;;;5.40;99.90;;;;;;4990653;28;20058;-70
2021/01/01 01:43:23;;;;;;;13.32;6.80;;;5.30;99.90;;;;;;4995987;28;20061;-69
2021/01/01 01:45:50;;;;;;;15.07;7.97;;;5.30;99.90;;;;;;4993174;28;20444;-69
2021/01/01 01:48:22;;;;;;;16.17;8.30;;;5.30;99.90;;;;;;5013139;28;20100;-69
2021/01/01 01:50:48;;;;;;;15.43;8.40;;;5.30;99.90;;;;;;5007448;28;20544;-69
2021/01/01 01:53:16;;;;;;;18.55;8.55;;;5.30;99.90;;;;;;5010504;28;20042;-69
2021/01/01 01:55:43;;;;;;;18.00;8.43;;;5.20;99.90;;;;;;5011610;28;20081;-71
2021/01/01 01:58:10;;;;;;;14.90;7.90;;;5.10;99.90;;;;;;5013389;28;20161;-71
2021/01/01 02:03:18;;;;;;;23.65;10.95;;;5.20;99.90;;;;;;5008348;28;20429;-71
2021/01/01 02:05:44;;;;;;;23.95;11.27;;;5.20;99.90;;;;;;5011553;28;20050;-68
2021/01/01 02:08:12;;;;;;;17.00;9.57;;;5.10;99.90;;;;;;5010969;28;20148;-69
2021/01/01 02:10:39;;;;;;;16.92;8.43;;;5.20;99.90;;;;;;4990068;28;20050;-70
2021/01/01 02:13:06;;;;;;;16.17;8.40;;;5.30;99.90;;;;;;5012041;28;20426;-70
2021/01/01 02:15:32;;;;;;;16.83;8.30;;;5.20;99.90;;;;;;4995643;28;20129;-71
2021/01/01 02:17:59;;;;;;;15.85;8.30;;;5.00;99.90;;;;;;5012447;28;20050;-70
2021/01/01 02:20:25;;;;;;;20.02;8.60;;;5.00;99.90;;;;;;5001290;28;20046;-69
2021/01/01 02:22:52;;;;;;;17.25;8.35;;;5.00;99.90;;;;;;5012701;28;20077;-70
2021/01/01 02:25:19;;;;;;;16.85;8.15;;;5.00;99.90;;;;;;5011014;28;20050;-71
2021/01/01 02:27:45;;;;;;;18.70;8.30;;;4.90;99.90;;;;;;5011451;28;20046;-69
2021/01/01 02:30:15;;;;;;;14.65;8.27;;;4.90;99.90;;;;;;5011837;28;20057;-69
2021/01/01 02:32:41;;;;;;;16.90;7.97;;;4.80;99.90;;;;;;4994273;28;20069;-69
2021/01/01 02:35:09;;;;;;;18.33;8.02;;;4.90;99.90;;;;;;5009781;28;20489;-70
2021/01/01 02:37:36;;;;;;;19.20;8.55;;;4.90;99.90;;;;;;5012979;28;20053;-69
2021/01/01 02:40:06;;;;;;;15.98;7.97;;;4.80;99.90;;;;;;5012084;28;20489;-69
2021/01/01 02:42:34;;;;;;;19.33;8.40;;;4.80;99.90;;;;;;5006609;28;20046;-69
2021/01/01 02:45:00;;;;;;;16.88;8.60;;;4.90;99.90;;;;;;5011395;28;20421;-68
2021/01/01 02:47:26;;;;;;;17.65;8.90;;;4.90;99.90;;;;;;5012368;28;20370;-71
2021/01/01 02:49:53;;;;;;;21.05;9.43;;;4.80;99.90;;;;;;5009440;28;20093;-69
2021/01/01 02:52:19;;;;;;;18.92;9.15;;;4.90;99.90;;;;;;4994218;28;20104;-69
2021/01/01 02:54:46;;;;;;;22.33;9.40;;;4.90;99.90;;;;;;5000878;28;20053;-69
2021/01/01 02:57:12;;;;;;;17.10;8.57;;;4.90;99.90;;;;;;4988980;28;20046;-70
2021/01/01 02:59:39;;;;;;;20.63;10.75;;;5.00;99.90;;;;;;5009620;28;20050;-69
2021/01/01 03:02:05;;;;;;;18.10;9.40;;;4.90;99.90;;;;;;5012000;28;20555;-70
2021/01/01 03:04:31;;;;;;;18.20;8.82;;;5.00;99.90;;;;;;5010515;28;20559;-69
2021/01/01 03:06:58;;;;;;;18.10;8.05;;;5.10;99.90;;;;;;5010287;28;20054;-70
2021/01/01 03:09:26;;;;;;;18.10;8.52;;;5.20;99.90;;;;;;4996346;28;20050;-71
2021/01/01 03:11:52;;;;;;;16.05;7.85;;;5.00;99.90;;;;;;5005027;28;20049;-69
2021/01/01 03:14:18;;;;;;;17.20;8.05;;;5.10;99.90;;;;;;5010717;28;20548;-71
2021/01/01 03:16:45;;;;;;;13.82;7.75;;;5.00;99.90;;;;;;5012502;28;20125;-69
2021/01/01 03:19:11;;;;;;;12.27;7.13;;;5.10;99.90;;;;;;5010805;28;20061;-70
2021/01/01 03:21:38;;;;;;;13.13;6.22;;;5.00;99.90;;;;;;5010808;28;20607;-70
2021/01/01 03:24:04;;;;;;;12.25;6.68;;;4.90;99.90;;;;;;5012562;28;20045;-70
2021/01/01 03:26:31;;;;;;;13.63;6.93;;;4.80;99.90;;;;;;4994669;28;20045;-70
2021/01/01 03:28:58;;;;;;;14.80;7.13;;;4.90;99.90;;;;;;5009200;28;20042;-71
2021/01/01 03:31:24;;;;;;;12.73;5.80;;;5.00;99.90;;;;;;5011802;28;20121;-69
2021/01/01 03:33:50;;;;;;;13.35;6.45;;;4.90;99.90;;;;;;5009555;28;20406;-68
2021/01/01 03:36:17;;;;;;;12.00;6.30;;;5.00;99.90;;;;;;5011279;28;20050;-69
2021/01/01 03:38:43;;;;;;;13.45;6.53;;;4.90;99.90;;;;;;4993953;28;20123;-69
2021/01/01 03:41:09;;;;;;;13.30;5.95;;;4.90;99.90;;;;;;5007173;28;20528;-70
2021/01/01 03:43:35;;;;;;;15.00;5.97;;;4.80;99.90;;;;;;5003787;28;20460;-70
2021/01/01 03:46:02;;;;;;;11.90;5.38;;;5.00;99.90;;;;;;5011933;28;20049;-69
2021/01/01 03:48:29;;;;;;;13.18;5.93;;;4.70;99.90;;;;;;4992257;28;20551;-68
2021/01/01 03:50:55;;;;;;;11.27;5.68;;;5.00;99.90;;;;;;5009488;28;20054;-69
2021/01/01 03:53:21;;;;;;;12.32;5.75;;;4.80;99.90;;;;;;5011430;28;20401;-68
2021/01/01 03:55:48;;;;;;;13.30;5.78;;;4.70;99.90;;;;;;5009010;28;20096;-69
2021/01/01 03:58:15;;;;;;;13.38;6.00;;;4.70;99.90;;;;;;4992679;28;20046;-68
2021/01/01 04:00:41;;;;;;;10.63;5.60;;;4.90;99.90;;;;;;4990742;28;20053;-69
2021/01/01 04:03:07;;;;;;;11.82;6.25;;;4.90;99.90;;;;;;5011300;28;20070;-69
2021/01/01 04:05:34;;;;;;;10.40;5.03;;;4.80;99.90;;;;;;5010755;28;20042;-69
2021/01/01 04:08:00;;;;;;;13.23;5.55;;;4.70;99.90;;;;;;5010767;28;20046;-70
2021/01/01 04:10:26;;;;;;;13.82;6.20;;;4.80;99.90;;;;;;5007847;28;20136;-69
2021/01/01 04:12:53;;;;;;;13.27;5.18;;;4.80;99.90;;;;;;5009712;28;20041;-69
2021/01/01 04:15:19;;;;;;;7.90;3.85;;;4.90;99.90;;;;;;4993498;28;20050;-70
2021/01/01 04:17:45;;;;;;;5.82;2.95;;;4.90;99.90;;;;;;5010056;28;20049;-70
2021/01/01 04:20:12;;;;;;;5.80;2.83;;;5.00;99.90;;;;;;5009455;28;20050;-71
2021/01/01 04:22:38;;;;;;;5.95;2.42;;;4.80;99.90;;;;;;4994044;28;20046;-70
2021/01/01 04:25:06;;;;;;;6.22;2.33;;;4.90;99.90;;;;;;4993965;28;20050;-70
2021/01/01 04:27:32;;;;;;;5.43;2.58;;;4.80;99.90;;;;;;5010156;28;20054;-70
2021/01/01 04:29:58;;;;;;;4.13;2.17;;;4.80;99.90;;;;;;4993408;28;20108;-69
2021/01/01 04:32:24;;;;;;;4.03;2.38;;;4.80;99.90;;;;;;5009009;28;20104;-69
2021/01/01 04:34:51;;;;;;;3.38;2.10;;;4.70;99.90;;;;;;4991077;28;20078;-70
2021/01/01 04:37:17;;;;;;;5.00;2.30;;;5.00;99.90;;;;;;4994475;28;20469;-69
2021/01/01 04:39:43;;;;;;;4.65;2.42;;;4.70;99.90;;;;;;5008785;28;20049;-70
2021/01/01 04:42:10;;;;;;;2.70;1.98;;;4.70;99.90;;;;;;5010445;28;20093;-71
2021/01/01 04:44:36;;;;;;;4.57;2.25;;;4.60;99.90;;;;;;5011352;28;20100;-70
2021/01/01 04:47:05;;;;;;;3.40;2.03;;;4.60;99.90;;;;;;5009264;28;20045;-69
2021/01/01 04:49:32;;;;;;;4.28;2.22;;;4.60;99.90;;;;;;5011643;28;20136;-69
2021/01/01 04:52:01;;;;;;;3.55;2.40;;;4.60;99.90;;;;;;5011662;28;20050;-69
2021/01/01 04:54:33;;;;;;;3.55;2.10;;;4.60;99.90;;;;;;5011267;28;20057;-69
2021/01/01 04:56:59;;;;;;;3.83;2.30;;;4.50;99.90;;;;;;4994527;28;20058;-70
2021/01/01 04:59:26;;;;;;;3.85;2.03;;;4.60;99.90;;;;;;5014813;28;20112;-70
2021/01/01 05:01:52;;;;;;;5.43;2.65;;;4.50;99.90;;;;;;5012443;28;20058;-69
2021/01/01 05:04:18;;;;;;;6.68;3.10;;;4.40;99.90;;;;;;5012751;28;20112;-69
2021/01/01 05:06:45;;;;;;;6.03;3.08;;;4.50;99.90;;;;;;5013493;28;20109;-70
2021/01/01 05:09:12;;;;;;;7.40;3.50;;;4.40;99.90;;;;;;4996944;28;20100;-70
2021/01/01 05:11:39;;;;;;;9.77;3.05;;;4.40;99.90;;;;;;5011206;28;20092;-70
2021/01/01 05:14:07;;;;;;;7.55;3.42;;;4.70;99.90;;;;;;5014065;28;20081;-69
2021/01/01 05:16:36;;;;;;;6.85;3.72;;;4.30;99.90;;;;;;5013563;28;20050;-69
2021/01/01 05:19:12;;;;;;;7.68;4.13;;;4.30;99.90;;;;;;5011953;28;20053;-69
2021/01/01 05:21:40;;;;;;;6.53;3.88;;;4.30;99.90;;;;;;5012650;28;20058;-69
2021/01/01 05:24:14;;;;;;;6.38;3.92;;;4.20;99.90;;;;;;4997980;28;20128;-69
2021/01/01 05:26:48;;;;;;;8.43;4.30;;;4.30;99.90;;;;;;4992679;28;20477;-68
2021/01/01 05:29:21;;;;;;;7.85;4.38;;;4.30;99.90;;;;;;5010761;28;20449;-68
2021/01/01 05:31:48;;;;;;;9.85;4.60;;;4.40;99.90;;;;;;5012524;28;20096;-69
2021/01/01 05:34:14;;;;;;;8.23;3.80;;;4.60;99.90;;;;;;5013147;28;20187;-68
2021/01/01 05:36:45;;;;;;;6.93;4.40;;;4.60;99.90;;;;;;5012705;28;20050;-69
2021/01/01 05:39:14;;;;;;;9.23;4.10;;;4.60;99.90;;;;;;5012459;28;20053;-68
2021/01/01 05:41:43;;;;;;;10.98;4.90;;;4.70;99.90;;;;;;5009037;28;20080;-69
2021/01/01 05:44:09;;;;;;;10.52;5.20;;;4.70;99.90;;;;;;5010431;28;20480;-69
2021/01/01 05:46:36;;;;;;;11.23;5.80;;;4.50;99.90;;;;;;5013026;28;20111;-68
2021/01/01 05:49:03;;;;;;;12.35;5.93;;;4.50;99.90;;;;;;5013819;28;20050;-69
2021/01/01 05:51:30;;;;;;;11.73;6.45;;;4.50;99.90;;;;;;4991182;28;20057;-68
2021/01/01 05:54:12;;;;;;;13.35;6.05;;;4.30;99.90;;;;;;5008463;28;20377;-69
2021/01/01 05:56:39;;;;;;;11.23;5.82;;;4.30;99.90;;;;;;5010010;28;20105;-68
2021/01/01 05:59:10;;;;;;;10.10;5.20;;;4.40;99.90;;;;;;5012142;28;20528;-68
2021/01/01 06:01:40;;;;;;;12.88;6.20;;;4.50;99.90;;;;;;4992995;28;20046;-68
2021/01/01 06:04:06;;;;;;;13.95;6.05;;;4.60;99.90;;;;;;4996627;28;20100;-68
2021/01/01 06:06:34;;;;;;;11.90;5.60;;;4.20;99.90;;;;;;5012608;28;20112;-67
2021/01/01 06:09:05;;;;;;;14.55;6.57;;;4.30;99.90;;;;;;5009582;28;20096;-68
2021/01/01 06:11:37;;;;;;;12.85;5.60;;;4.20;99.90;;;;;;5009605;28;20517;-68
2021/01/01 06:14:05;;;;;;;9.25;4.45;;;4.20;99.90;;;;;;5012596;28;20481;-68
2021/01/01 06:16:45;;;;;;;6.70;4.10;;;4.10;99.90;;;;;;4992459;28;20117;-68
2021/01/01 06:19:12;;;;;;;6.65;3.88;;;4.20;99.90;;;;;;4994237;28;20050;-68
2021/01/01 06:21:43;;;;;;;4.75;3.03;;;4.20;99.90;;;;;;5010661;28;20173;-69
2021/01/01 06:24:13;;;;;;;;;;;4.10;99.90;;;;;;4995057;28;20058;-70
2021/01/01 06:26:43;;;;;;;3.85;1.85;;;4.20;99.90;;;;;;5013324;28;20361;-70
2021/01/01 06:29:12;;;;;;;4.68;2.67;;;3.90;99.90;;;;;;4994164;28;20454;-69
2021/01/01 06:31:43;;;;;;;5.32;2.65;;;3.90;99.90;;;;;;5009511;28;20057;-69
2021/01/01 06:34:23;;;;;;;5.38;2.83;;;4.10;99.90;;;;;;5014396;28;20053;-69
2021/01/01 06:36:50;;;;;;;4.03;2.30;;;4.10;99.90;;;;;;5013738;28;20045;-69
2021/01/01 06:39:43;;;;;;;4.88;2.42;;;4.10;99.90;;;;;;5010356;28;20505;-69
2021/01/01 06:42:11;;;;;;;6.18;2.65;;;4.00;99.90;;;;;;4980198;28;20049;-69
2021/01/01 06:44:41;;;;;;;7.43;3.03;;;4.10;99.90;;;;;;4995710;28;20096;-69
2021/01/01 06:47:28;;;;;;;4.95;2.58;;;4.10;99.90;;;;;;5011297;28;20127;-68
2021/01/01 06:49:55;;;;;;;5.07;3.00;;;4.10;99.90;;;;;;4994206;28;20517;-69
2021/01/01 06:52:21;;;;;;;4.68;2.65;;;4.50;99.90;;;;;;5008942;28;20049;-68
2021/01/01 06:55:01;;;;;;;4.88;2.85;;;4.20;99.90;;;;;;4994399;28;20092;-70
2021/01/01 06:57:29;;;;;;;5.22;3.05;;;4.20;99.90;;;;;;4992960;28;20050;-69
2021/01/01 06:59:58;;;;;;;5.55;2.90;;;4.20;99.90;;;;;;5011379;28;20050;-70
2021/01/01 07:02:28;;;;;;;6.97;2.80;;;4.40;99.90;;;;;;5011814;28;20061;-70
2021/01/01 07:05:01;;;;;;;5.03;2.67;;;4.40;99.90;;;;;;5009088;28;20393;-70
2021/01/01 07:07:40;;;;;;;4.45;2.90;;;4.30;99.90;;;;;;5009295;28;20100;-69
2021/01/01 07:10:13;;;;;;;7.13;3.85;;;4.10;99.90;;;;;;5003686;28;20054;-70
2021/01/01 07:12:39;;;;;;;8.35;4.78;;;4.00;99.90;;;;;;5010484;28;20050;-69
2021/01/01 07:15:34;;;;;;;8.93;4.57;;;4.00;99.90;;;;;;5009857;28;20496;-69
2021/01/01 07:18:01;;;;;;;8.43;4.10;;;4.00;99.90;;;;;;4992124;28;20386;-70
2021/01/01 07:20:28;;;;;;;9.05;4.93;;;3.90;99.90;;;;;;5012758;28;20472;-69
2021/01/01 07:22:56;;;;;;;8.75;4.45;;;3.90;99.90;;;;;;5010393;28;20050;-70
2021/01/01 07:25:36;;;;;;;8.90;4.78;;;3.90;99.90;;;;;;5008666;28;20451;-70
2021/01/01 07:28:05;;;;;;;10.05;4.85;;;4.00;99.90;;;;;;5011387;28;20042;-69
2021/01/01 07:30:35;;;;;;;15.27;7.13;;;4.00;99.90;;;;;;5009764;28;20046;-71
2021/01/01 07:33:02;;;;;;;;;;;4.00;99.90;;;;;;5007526;28;20104;-70
2021/01/01 07:35:29;;;;;;;10.27;5.05;;;4.10;99.90;;;;;;5011391;28;19931;-69
2021/01/01 07:37:58;;;;;;;9.48;5.03;;;4.10;99.90;;;;;;4993575;28;20050;-70
2021/01/01 07:40:25;;;;;;;9.30;5.15;;;4.50;99.90;;;;;;5009673;28;20053;-70
2021/01/01 07:42:53;;;;;;;13.73;5.45;;;4.10;99.90;;;;;;5007799;28;20050;-70
2021/01/01 07:45:20;;;;;;;13.00;5.35;;;4.20;99.90;;;;;;4992229;28;20473;-70
2021/01/01 07:47:48;;;;;;;11.63;5.45;;;4.20;99.90;;;;;;5010886;28;20045;-69
2021/01/01 07:50:16;;;;;;;12.15;5.95;;;4.40;99.90;;;;;;5011471;28;20042;-68
2021/01/01 07:52:43;;;;;;;12.00;6.75;;;4.10;99.90;;;;;;5009015;28;20054;-69
2021/01/01 07:55:10;;;;;;;12.02;7.00;;;4.30;99.90;;;;;;5010139;28;20084;-70
2021/01/01 07:57:39;;;;;;;16.42;8.57;;;4.30;99.90;;;;;;5011321;28;20052;-69
2021/01/01 08:00:07;;;;;;;20.20;8.63;;;4.10;99.90;;;;;;5011585;28;20486;-70
2021/01/01 08:02:34;;;;;;;17.25;8.23;;;4.10;99.90;;;;;;4992880;28;20049;-70
2021/01/01 08:05:04;;;;;;;14.98;7.00;;;4.10;99.90;;;;;;5010465;28;20050;-69
2021/01/01 08:07:31;;;;;;;;;;;4.10;99.90;;;;;;5006077;28;20096;-67
2021/01/01 08:09:57;;;;;;;15.75;7.03;;;4.10;99.90;;;;;;5008262;28;19925;-69
2021/01/01 08:12:23;;;;;;;14.07;7.10;;;4.10;99.90;;;;;;5009968;28;20045;-69
2021/01/01 08:14:51;;;;;;;11.38;6.65;;;4.10;99.90;;;;;;5011205;28;20042;-69
2021/01/01 08:17:23;;;;;;;14.20;7.15;;;4.10;99.90;;;;;;5008658;28;20050;-69
2021/01/01 08:19:49;;;;;;;14.57;7.00;;;4.20;99.90;;;;;;4993889;28;20046;-69
2021/01/01 08:22:26;;;;;;;15.25;7.10;;;4.20;99.90;;;;;;5011528;28;20054;-70
2021/01/01 08:24:55;;;;;;;8.35;4.95;;;4.30;99.90;;;;;;5011380;28;20473;-69
2021/01/01 08:27:24;;;;;;;8.60;5.25;;;4.30;99.90;;;;;;5013668;28;20317;-69
2021/01/01 08:29:53;;;;;;;9.63;4.78;;;4.40;99.90;;;;;;5015819;28;20100;-71
2021/01/01 08:32:20;;;;;;;8.70;4.47;;;4.40;99.90;;;;;;4995451;28;20111;-69
2021/01/01 08:34:52;;;;;;;8.55;4.88;;;4.60;99.90;;;;;;5013914;28;20120;-68
2021/01/01 08:37:22;;;;;;;9.20;4.60;;;4.70;99.90;;;;;;5015629;28;20070;-70
2021/01/01 08:40:06;;;;;;;6.75;4.28;;;4.70;99.90;;;;;;5015210;28;20077;-70
2021/01/01 08:42:35;;;;;;;7.93;4.20;;;4.60;99.90;;;;;;5012173;28;20053;-69
2021/01/01 08:45:04;;;;;;;9.13;4.65;;;4.60;99.90;;;;;;4997086;28;20061;-70
2021/01/01 08:47:44;;;;;;;8.82;5.00;;;4.60;99.90;;;;;;5015451;28;20054;-69
2021/01/01 08:50:24;;;;;;;6.63;4.15;;;4.60;99.90;;;;;;4996549;28;20057;-70
2021/01/01 08:53:02;;;;;;;5.75;3.65;;;4.70;99.90;;;;;;5011614;28;20053;-69
2021/01/01 08:55:30;;;;;;;6.65;4.07;;;4.70;99.90;;;;;;5007995;28;20366;-69
2021/01/01 08:58:09;;;;;;;7.40;4.50;;;4.70;99.90;;;;;;5015871;28;20386;-70
2021/01/01 09:00:41;;;;;;;8.23;4.68;;;4.90;99.90;;;;;;5012203;28;20489;-69
2021/01/01 09:03:07;;;;;;;6.97;4.43;;;4.80;99.90;;;;;;5014404;28;20061;-68
2021/01/01 09:05:35;;;;;;;7.80;4.60;;;4.90;99.90;;;;;;5012494;28;20181;-70
2021/01/01 09:08:12;;;;;;;6.32;4.18;;;5.10;99.90;;;;;;5013624;28;20452;-69
2021/01/01 09:10:43;;;;;;;8.38;4.13;;;5.10;99.90;;;;;;5010082;28;20074;-68
2021/01/01 09:13:12;;;;;;;10.13;4.97;;;5.30;99.90;;;;;;5012257;28;20054;-70
2021/01/01 09:15:39;;;;;;;9.02;4.88;;;5.00;99.90;;;;;;4996558;28;20086;-69
2021/01/01 09:18:06;;;;;;;9.18;5.20;;;5.00;99.90;;;;;;5013399;28;20057;-68
2021/01/01 09:20:40;;;;;;;8.02;5.25;;;5.10;99.90;;;;;;4996299;28;20058;-70
2021/01/01 09:23:07;;;;;;;11.07;5.72;;;5.20;99.90;;;;;;5014096;28;20065;-68
2021/01/01 09:25:34;;;;;;;8.95;5.40;;;5.10;99.90;;;;;;5011522;28;20535;-70
2021/01/01 09:28:02;;;;;;;13.73;5.80;;;5.10;99.90;;;;;;5007988;28;20042;-69
2021/01/01 09:30:31;;;;;;;14.30;6.25;;;5.20;99.90;;;;;;5010230;28;20054;-70
2021/01/01 09:32:59;;;;;;;15.30;7.32;;;5.30;99.90;;;;;;4995343;28;20071;-70
2021/01/01 09:35:27;;;;;;;14.73;8.05;;;5.10;99.90;;;;;;5013353;28;20492;-70
2021/01/01 09:37:56;;;;;;;13.88;8.35;;;5.10;99.90;;;;;;5014503;28;20512;-69
2021/01/01 09:40:25;;;;;;;13.15;7.40;;;5.00;99.90;;;;;;5011493;28;20145;-70
2021/01/01 09:42:56;;;;;;;14.10;7.65;;;4.90;99.90;;;;;;5009211;28;20042;-69
2021/01/01 09:45:23;;;;;;;15.30;8.50;;;5.20;99.90;;;;;;5011656;28;20493;-69
2021/01/01 09:47:49;;;;;;;18.35;8.68;;;5.10;99.90;;;;;;5009884;28;20049;-69
2021/01/01 09:50:16;;;;;;;14.88;8.63;;;5.10;99.90;;;;;;4993665;28;20046;-68
2021/01/01 09:52:43;;;;;;;15.20;8.93;;;5.20;99.90;;;;;;5013528;28;20038;-67
2021/01/01 09:55:09;;;;;;;16.13;8.85;;;5.30;99.90;;;;;;5009618;28;20049;-70
2021/01/01 09:57:38;;;;;;;15.70;8.20;;;5.30;99.90;;;;;;4994449;28;20096;-69
2021/01/01 10:00:09;;;;;;;16.40;8.48;;;5.10;99.90;;;;;;5008655;28;20072;-71
2021/01/01 10:02:35;;;;;;;16.70;8.43;;;5.10;99.90;;;;;;5013251;28;20042;-69
2021/01/01 10:05:02;;;;;;;15.15;8.25;;;5.10;99.90;;;;;;5012908;28;20119;-69
2021/01/01 10:07:29;;;;;;;15.95;7.80;;;5.00;99.90;;;;;;4994941;28;20541;-70
2021/01/01 10:09:56;;;;;;;15.98;8.27;;;5.00;99.90;;;;;;5011867;28;20842;-70
2021/01/01 10:12:24;;;;;;;13.32;7.70;;;5.00;99.90;;;;;;5011079;28;20050;-70
2021/01/01 10:14:53;;;;;;;17.60;8.77;;;5.00;99.90;;;;;;5012687;28;20104;-69
2021/01/01 10:17:27;;;;;;;15.27;8.57;;;5.00;99.90;;;;;;5010928;28;20050;-68
2021/01/01 10:19:55;;;;;;;17.38;8.02;;;5.20;99.90;;;;;;5011336;28;20054;-69
2021/01/01 10:22:22;;;;;;;12.48;7.40;;;5.00;99.90;;;;;;4995292;28;20470;-69
2021/01/01 10:24:48;;;;;;;12.52;7.15;;;5.00;99.90;;;;;;5011416;28;20050;-68
2021/01/01 10:27:15;;;;;;;16.17;7.63;;;4.90;99.90;;;;;;5009882;28;20054;-69
2021/01/01 10:29:43;;;;;;;14.07;7.35;;;5.00;99.90;;;;;;5003419;28;20061;-69
2021/01/01 10:32:13;;;;;;;10.32;6.40;;;5.20;99.90;;;;;;5011888;28;20042;-69
2021/01/01 10:34:42;;;;;;;13.93;7.07;;;5.00;99.90;;;;;;5009129;28;20466;-69
2021/01/01 10:37:09;;;;;;;12.18;7.43;;;5.10;99.90;;;;;;5008677;28;20050;-70
2021/01/01 10:39:36;;;;;;;14.10;7.78;;;5.10;99.90;;;;;;4990952;28;20101;-70
2021/01/01 10:42:03;;;;;;;12.75;7.07;;;5.10;99.90;;;;;;5009825;28;20489;-69
2021/01/01 10:44:33;;;;;;;12.45;6.60;;;5.10;99.90;;;;;;4995710;28;20414;-69
2021/01/01 10:47:00;;;;;;;12.80;6.97;;;5.40;99.90;;;;;;5011466;28;20363;-70
2021/01/01 10:49:26;;;;;;;12.77;7.13;;;5.40;99.90;;;;;;5010287;28;20470;-71
2021/01/01 10:51:59;;;;;;;15.30;7.40;;;5.30;99.90;;;;;;5010547;28;20046;-71
2021/01/01 10:54:28;;;;;;;11.48;6.65;;;5.30;99.90;;;;;;5008989;28;20050;-70
2021/01/01 10:56:54;;;;;;;12.98;6.78;;;5.30;99.90;;;;;;4994349;28;20054;-69
2021/01/01 10:59:22;;;;;;;12.23;7.00;;;5.40;99.90;;;;;;5011011;28;20049;-69
2021/01/01 11:01:52;;;;;;;13.27;7.35;;;5.40;99.90;;;;;;5010224;28;20054;-68
2021/01/01 11:04:19;;;;;;;13.75;7.05;;;5.50;99.90;;;;;;5011242;28;20054;-70
2021/01/01 11:06:45;;;;;;;11.27;6.30;;;5.80;99.90;;;;;;5010520;28;20058;-69
2021/01/01 11:09:11;;;;;;;11.32;6.90;;;5.50;99.90;;;;;;4994202;28;20398;-70
2021/01/01 11:11:38;;;;;;;11.43;6.38;;;5.50;99.90;;;;;;5011476;28;20046;-69
2021/01/01 11:14:10;;;;;;;11.57;6.70;;;5.50;99.90;;;;;;5009433;28;20081;-69
2021/01/01 12:25:12;;;;;;;12.63;6.90;;;5.50;99.90;;;;;;5005491;28;20476;-69
2021/01/01 12:27:39;;;;;;;13.93;6.78;;;5.60;99.90;;;;;;5010222;28;20046;-70
2021/01/01 12:30:07;;;;;;;13.23;6.90;;;5.60;99.90;;;;;;5010507;28;20150;-70
2021/01/01 12:32:36;;;;;;;13.23;6.53;;;5.60;99.90;;;;;;5008362;28;20100;-69
2021/01/01 12:35:03;;;;;;;12.57;6.85;;;5.60;99.90;;;;;;5008568;28;20104;-69
2021/01/01 12:37:30;;;;;;;13.57;6.50;;;5.40;99.90;;;;;;4993771;28;20045;-69
2021/01/01 12:39:56;;;;;;;14.18;7.13;;;5.50;99.90;;;;;;5008756;28;20496;-70
2021/01/01 12:42:23;;;;;;;13.98;6.95;;;5.50;99.90;;;;;;5007795;28;20470;-68
2021/01/01 12:44:51;;;;;;;14.93;7.05;;;5.50;99.90;;;;;;4994344;28;20068;-69
2021/01/01 12:47:17;;;;;;;10.93;6.32;;;5.50;99.90;;;;;;4991335;28;20438;-69
2021/01/01 12:49:45;;;;;;;15.77;7.22;;;5.50;99.90;;;;;;5010376;28;20108;-71
2021/01/01 12:52:12;;;;;;;14.15;7.20;;;5.50;99.90;;;;;;5010979;28;20096;-69
2021/01/01 12:54:39;;;;;;;15.48;7.82;;;5.40;99.90;;;;;;5004773;28;20047;-71
2021/01/01 12:57:05;;;;;;;13.23;7.55;;;5.40;99.90;;;;;;5005600;28;20133;-69
2021/01/01 12:59:32;;;;;;;18.00;7.18;;;5.40;99.90;;;;;;5011483;28;20096;-69
2021/01/01 13:02:02;;;;;;;;;;;5.40;99.90;;;;;;5006239;28;20054;-70
2021/01/01 13:04:28;;;;;;;15.93;7.88;;;5.40;99.90;;;;;;5009842;28;19988;-69
2021/01/01 13:06:55;;;;;;;13.05;7.43;;;5.40;99.90;;;;;;5010795;28;20050;-69
2021/01/01 13:09:24;;;;;;;13.13;6.85;;;5.40;99.90;;;;;;4993339;28;20478;-69
2021/01/01 13:11:51;;;;;;;13.95;7.50;;;5.30;99.90;;;;;;5009918;28;20088;-69
2021/01/01 13:14:17;;;;;;;14.93;7.85;;;5.40;99.90;;;;;;4996664;28;20045;-69
2021/01/01 13:16:43;;;;;;;13.60;7.57;;;5.40;99.90;;;;;;5011826;28;20077;-69
2021/01/01 13:19:11;;;;;;;13.90;8.05;;;5.40;99.90;;;;;;5013532;28;20112;-70
2021/01/01 13:21:38;;;;;;;15.35;8.32;;;5.40;99.90;;;;;;5014267;28;20057;-69
2021/01/01 13:24:05;;;;;;;13.65;7.28;;;5.40;99.90;;;;;;5011837;28;20076;-69
2021/01/01 13:26:33;;;;;;;13.13;7.57;;;5.40;99.90;;;;;;4994494;28;20473;-70
2021/01/01 13:29:02;;;;;;;13.90;7.43;;;5.40;99.90;;;;;;4996464;28;20050;-70
2021/01/01 13:31:37;;;;;;;11.82;6.43;;;5.40;99.90;;;;;;4996437;28;20056;-69
2021/01/01 13:34:05;;;;;;;10.30;6.63;;;5.40;99.90;;;;;;5013683;28;20359;-71
2021/01/01 13:36:32;;;;;;;12.95;6.88;;;5.30;99.90;;;;;;4993810;28;20177;-69
2021/01/01 13:38:58;;;;;;;12.98;7.20;;;5.30;99.90;;;;;;5013130;28;20762;-70
2021/01/01 13:41:25;;;;;;;13.38;7.22;;;5.30;99.90;;;;;;5008614;28;20054;-70
2021/01/01 13:43:55;;;;;;;13.30;7.50;;;5.50;99.90;;;;;;5014506;28;20044;-68
2021/01/01 13:46:25;;;;;;;14.25;6.95;;;5.40;99.90;;;;;;5011462;28;20046;-69
2021/01/01 13:48:53;;;;;;;14.90;7.40;;;5.40;99.90;;;;;;5012154;28;20076;-69
2021/01/01 13:51:29;;;;;;;15.18;7.55;;;5.30;99.90;;;;;;4995823;28;20050;-68
2021/01/01 13:53:56;;;;;;;16.15;7.82;;;5.30;99.90;;;;;;5011308;28;20038;-69
2021/01/01 13:56:23;;;;;;;13.45;7.13;;;5.40;99.90;;;;;;5013005;28;20489;-69
2021/01/01 13:58:50;;;;;;;17.00;7.78;;;5.50;99.90;;;;;;5012612;28;20046;-69
2021/01/01 14:01:21;;;;;;;12.85;7.50;;;5.60;99.90;;;;;;5012720;28;20452;-68
2021/01/01 14:03:48;;;;;;;13.27;7.63;;;5.60;99.90;;;;;;5012080;28;20045;-69
2021/01/01 14:06:15;;;;;;;13.18;7.60;;;5.60;99.90;;;;;;5007484;28;20385;-69
2021/01/01 14:08:42;;;;;;;17.10;8.27;;;5.60;99.90;;;;;;5013350;28;20474;-67